Terminal Aerodrome Forecast
Issued by NWS

Home | Current Version | Previous Version | Text Only | Print | Product List | Glossary On
Versions: 1 2 3 4 5 6 7 8 9 10 11 12 13 14 15 16 17
000
FTUS46 KSGX 270520
TAFSNA
TAF
KSNA 270520Z 2706/2806 VRB05KT P6SM SCT020 SCT250
     FM270900 VRB05KT P6SM OVC012
     FM271600 VRB05KT P6SM BKN015
     FM272000 24008KT P6SM SCT020 BKN250
     FM280100 25010KT P6SM BKN020 BKN250=

USA.gov is the U.S. government's official web portal to all federal, state and local government web resources and services.